Time;durP1;ratioP1;P1;durP2;ratioP2;P2;SDS_P1;SDS_P2;PMS_P1;PMS_P2;Temp;Humidity;BMP_temperature;BMP_pressure;BME280_temperature;BME280_humidity;BME280_pressure;Samples;Min_cycle;Max_cycle;Signal;HPM_P1;HPM_P2
2023/04/05 00:01:00;;;;;;;13.97;7.30;;;3.70;1.00;;;;;;4902270;29;20217;-94
2023/04/05 00:03:27;;;;;;;11.93;6.67;;;3.70;1.00;;;;;;4902823;29;20220;-94
2023/04/05 00:05:54;;;;;;;10.10;4.77;;;3.70;1.00;;;;;;4902916;29;20603;-94
2023/04/05 00:08:25;;;;;;;10.37;4.40;;;3.60;1.00;;;;;;4902882;29;20202;-95
2023/04/05 00:10:52;;;;;;;8.37;4.63;;;3.60;1.00;;;;;;4902607;29;20658;-95
2023/04/05 00:13:21;;;;;;;18.87;9.50;;;3.60;1.00;;;;;;4902436;29;20205;-94
2023/04/05 00:15:48;;;;;;;40.37;17.20;;;3.60;1.00;;;;;;4902605;29;20238;-94
2023/04/05 00:18:22;;;;;;;32.47;13.40;;;3.60;1.00;;;;;;4902937;29;20205;-95
2023/04/05 00:20:49;;;;;;;14.93;6.43;;;3.60;1.00;;;;;;4902579;29;20213;-94
2023/04/05 00:23:17;;;;;;;14.17;5.50;;;3.60;1.00;;;;;;4902255;29;20296;-94
2023/04/05 00:25:44;;;;;;;8.37;4.30;;;3.50;1.00;;;;;;4902693;29;20198;-94
2023/04/05 00:28:11;;;;;;;10.13;4.97;;;3.50;1.00;;;;;;4902660;29;20209;-94
2023/04/05 00:30:40;;;;;;;17.47;7.30;;;3.50;1.00;;;;;;4902535;29;20201;-95
2023/04/05 00:33:06;;;;;;;21.50;8.70;;;3.50;1.00;;;;;;4902082;29;20229;-94
2023/04/05 00:35:33;;;;;;;19.20;6.93;;;3.50;1.00;;;;;;4902091;29;20229;-94
2023/04/05 00:38:00;;;;;;;14.10;5.90;;;3.50;1.00;;;;;;4902540;29;20206;-94
2023/04/05 00:40:27;;;;;;;8.47;4.40;;;3.40;1.00;;;;;;4902051;29;20217;-94
2023/04/05 00:42:53;;;;;;;8.83;4.63;;;3.40;1.00;;;;;;4902077;29;20217;-94
2023/04/05 00:45:20;;;;;;;10.27;4.27;;;3.40;1.00;;;;;;4902390;29;20326;-94
2023/04/05 00:47:49;;;;;;;8.50;4.20;;;3.30;1.00;;;;;;4901632;29;20216;-94
2023/04/05 00:50:17;;;;;;;7.33;4.13;;;3.30;1.00;;;;;;4902727;29;20206;-94
2023/04/05 00:52:44;;;;;;;8.97;4.20;;;3.30;1.00;;;;;;4902014;29;20202;-94
2023/04/05 00:55:12;;;;;;;11.07;4.30;;;3.20;1.00;;;;;;4901661;29;20657;-94
2023/04/05 00:57:39;;;;;;;9.93;4.00;;;3.20;1.00;;;;;;4883213;29;20206;-94
2023/04/05 01:00:10;;;;;;;8.53;3.97;;;3.10;1.00;;;;;;4883310;29;20207;-94
2023/04/05 01:02:45;;;;;;;7.47;4.33;;;3.10;1.00;;;;;;4882990;29;20639;-94
2023/04/05 01:05:24;;;;;;;10.53;4.50;;;3.10;1.00;;;;;;4901596;29;20201;-93
2023/04/05 01:07:58;;;;;;;11.07;4.27;;;3.10;1.00;;;;;;4902137;29;20631;-94
2023/04/05 01:10:29;;;;;;;10.33;4.03;;;3.10;1.00;;;;;;4901581;29;20190;-94
2023/04/05 01:12:56;;;;;;;6.77;4.07;;;3.10;1.00;;;;;;4900909;29;20641;-94
2023/04/05 01:15:22;;;;;;;5.67;3.40;;;3.10;1.00;;;;;;4901289;29;20214;-94
2023/04/05 01:17:52;;;;;;;7.23;3.73;;;3.10;1.00;;;;;;4902043;29;20206;-95
2023/04/05 01:20:24;;;;;;;8.67;3.40;;;3.10;1.00;;;;;;4901227;29;20201;-94
2023/04/05 01:23:26;;;;;;;6.00;3.20;;;3.20;1.00;;;;;;4901644;29;20298;-93
2023/04/05 01:26:21;;;;;;;6.77;2.93;;;3.20;1.00;;;;;;4883852;29;20185;-93
2023/04/05 01:29:23;;;;;;;5.03;2.80;;;3.20;1.00;;;;;;4901094;29;20208;-93
2023/04/05 01:31:59;;;;;;;5.10;3.07;;;3.20;1.00;;;;;;4891512;29;20205;-94
2023/04/05 01:34:34;;;;;;;6.43;2.80;;;3.20;1.00;;;;;;4901629;29;20206;-94
2023/04/05 01:37:06;;;;;;;6.67;2.80;;;3.20;1.00;;;;;;4901581;29;20190;-93
2023/04/05 01:39:35;;;;;;;5.13;2.73;;;3.20;1.00;;;;;;4900999;29;20206;-95
2023/04/05 01:42:03;;;;;;;6.27;3.10;;;3.20;1.00;;;;;;4901162;29;20209;-94
2023/04/05 01:44:30;;;;;;;6.93;3.00;;;3.20;1.00;;;;;;4901031;29;20537;-93
2023/04/05 01:46:58;;;;;;;7.67;3.40;;;3.20;1.00;;;;;;4901134;29;20204;-92
2023/04/05 01:49:25;;;;;;;8.40;3.20;;;3.20;1.00;;;;;;4900974;29;20209;-93
2023/04/05 01:51:52;;;;;;;6.77;3.33;;;3.20;1.00;;;;;;4894457;29;20202;-93
2023/04/05 01:54:19;;;;;;;7.47;3.50;;;3.20;1.00;;;;;;4898863;29;20201;-93
2023/04/05 01:56:46;;;;;;;6.40;3.40;;;3.20;1.00;;;;;;4896115;29;20199;-93
2023/04/05 01:59:12;;;;;;;7.53;3.47;;;3.20;1.00;;;;;;4892142;29;20206;-92
2023/04/05 02:01:39;;;;;;;6.73;3.73;;;3.20;1.00;;;;;;4884752;29;20206;-93
2023/04/05 02:04:07;;;;;;;6.97;3.70;;;3.20;1.00;;;;;;4899944;29;20198;-93
2023/04/05 02:06:34;;;;;;;6.50;3.77;;;3.20;1.00;;;;;;4899189;29;20663;-94
2023/04/05 02:09:01;;;;;;;8.57;3.93;;;3.20;1.00;;;;;;4899731;29;20309;-93
2023/04/05 02:11:27;;;;;;;6.20;3.47;;;3.10;1.00;;;;;;4898154;29;20214;-94
2023/04/05 02:13:54;;;;;;;6.53;3.77;;;3.10;1.00;;;;;;4886152;29;20670;-93
2023/04/05 02:16:21;;;;;;;8.33;4.03;;;3.10;1.00;;;;;;4884184;29;20241;-93
2023/04/05 02:18:49;;;;;;;7.80;4.13;;;3.10;1.00;;;;;;4898659;29;20277;-93
2023/04/05 02:21:17;;;;;;;9.33;3.67;;;3.00;1.00;;;;;;4896717;29;20290;-94
2023/04/05 02:23:44;;;;;;;11.00;4.47;;;3.00;1.00;;;;;;4894558;29;20202;-94
2023/04/05 02:26:11;;;;;;;9.83;4.20;;;2.90;1.00;;;;;;4894666;29;20285;-93
2023/04/05 02:28:38;;;;;;;10.87;4.70;;;2.90;1.00;;;;;;4897195;29;20208;-94
2023/04/05 02:31:09;;;;;;;7.33;4.40;;;2.80;1.00;;;;;;4898568;29;20214;-93
2023/04/05 02:33:36;;;;;;;9.00;4.10;;;2.80;1.00;;;;;;4888112;29;20572;-93
2023/04/05 02:36:05;;;;;;;7.27;4.00;;;2.80;1.00;;;;;;4887677;29;20550;-94
2023/04/05 02:38:33;;;;;;;7.73;4.53;;;2.80;1.00;;;;;;4893249;29;20282;-94
2023/04/05 02:41:00;;;;;;;9.73;4.40;;;2.70;1.00;;;;;;4887404;29;20655;-94
2023/04/05 02:43:27;;;;;;;8.37;4.13;;;2.70;1.00;;;;;;4883458;29;20221;-93
2023/04/05 02:45:54;;;;;;;10.97;5.33;;;2.60;1.00;;;;;;4892382;29;20203;-93
2023/04/05 02:48:21;;;;;;;11.10;4.60;;;2.60;1.00;;;;;;4897682;29;20669;-95
2023/04/05 02:50:48;;;;;;;7.87;4.43;;;2.60;1.00;;;;;;4898274;29;20197;-94
2023/04/05 02:53:15;;;;;;;6.57;4.23;;;2.50;1.00;;;;;;4898978;29;20208;-94
2023/04/05 02:55:52;;;;;;;8.23;4.67;;;2.50;1.00;;;;;;4899122;29;20360;-94
2023/04/05 02:58:18;;;;;;;12.23;5.30;;;2.50;8.90;;;;;;4899543;29;20197;-94
2023/04/05 03:00:49;;;;;;;11.53;4.40;;;2.50;21.00;;;;;;4899125;29;20205;-92
2023/04/05 03:03:17;;;;;;;10.23;4.63;;;2.50;32.40;;;;;;4898730;29;20214;-92
2023/04/05 03:05:43;;;;;;;11.03;5.20;;;2.50;64.50;;;;;;4898167;29;20204;-92
2023/04/05 03:08:17;;;;;;;12.30;5.00;;;2.50;54.60;;;;;;4898912;29;20211;-94
2023/04/05 03:10:45;;;;;;;8.77;4.30;;;2.50;62.30;;;;;;4898834;29;20287;-92
2023/04/05 03:13:12;;;;;;;10.80;5.00;;;2.50;88.10;;;;;;4880351;29;20200;-93
2023/04/05 03:15:39;;;;;;;10.87;6.00;;;2.40;95.10;;;;;;4844610;29;1054248;-93
2023/04/05 03:18:06;;;;;;;11.17;5.23;;;2.40;99.90;;;;;;4883365;29;20236;-94
2023/04/05 03:20:35;;;;;;;10.30;4.70;;;2.30;99.90;;;;;;4893328;29;20211;-93
2023/04/05 03:23:02;;;;;;;8.63;5.07;;;2.30;99.90;;;;;;4899460;29;20218;-93
2023/04/05 03:25:29;;;;;;;9.03;4.53;;;2.30;99.90;;;;;;4899161;29;20198;-92
2023/04/05 03:27:57;;;;;;;11.30;4.93;;;2.20;99.90;;;;;;4899612;29;20215;-93
2023/04/05 03:30:25;;;;;;;11.57;5.20;;;2.10;99.90;;;;;;4898849;29;20204;-93
2023/04/05 03:32:52;;;;;;;10.80;5.33;;;2.00;99.90;;;;;;4899726;29;20200;-93
2023/04/05 03:35:18;;;;;;;13.10;4.93;;;1.90;99.90;;;;;;4901040;29;20219;-94
2023/04/05 03:37:45;;;;;;;12.97;5.10;;;1.80;99.90;;;;;;4902980;29;20254;-93
2023/04/05 03:40:13;;;;;;;14.47;6.97;;;1.80;99.90;;;;;;4903391;29;20231;-93
2023/04/05 03:42:40;;;;;;;19.13;8.73;;;1.60;99.90;;;;;;4903180;29;20772;-92
2023/04/05 03:45:09;;;;;;;14.37;8.30;;;1.60;99.90;;;;;;4903278;29;20675;-93
2023/04/05 03:47:36;;;;;;;20.97;7.93;;;1.50;99.90;;;;;;4900639;29;20666;-93
2023/04/05 03:50:03;;;;;;;17.60;8.60;;;1.40;99.90;;;;;;4884262;29;20543;-93
2023/04/05 03:52:30;;;;;;;20.03;9.47;;;1.40;99.90;;;;;;4884217;29;20656;-93
2023/04/05 03:54:57;;;;;;;17.60;10.53;;;1.40;99.90;;;;;;4900973;29;20669;-93
2023/04/05 03:57:24;;;;;;;24.73;11.63;;;1.30;99.90;;;;;;4903082;29;20656;-93
2023/04/05 03:59:50;;;;;;;16.53;7.30;;;1.30;99.90;;;;;;4902810;29;20209;-94
2023/04/05 04:02:18;;;;;;;15.90;6.97;;;1.30;99.90;;;;;;4902682;29;20197;-94
2023/04/05 04:04:46;;;;;;;10.03;5.63;;;1.30;99.90;;;;;;4903203;29;20205;-94
2023/04/05 04:07:13;;;;;;;13.73;5.90;;;1.20;99.90;;;;;;4902421;29;20730;-92
2023/04/05 04:09:40;;;;;;;10.67;5.53;;;1.20;99.90;;;;;;4884262;29;20207;-92
2023/04/05 04:12:07;;;;;;;11.03;5.40;;;1.10;99.90;;;;;;4898296;29;20202;-91
2023/04/05 04:14:35;;;;;;;11.93;5.60;;;1.10;99.90;;;;;;4902388;29;20207;-91
2023/04/05 04:17:02;;;;;;;13.03;7.03;;;1.00;1.00;;;;;;4902143;29;20710;-91
2023/04/05 04:19:30;;;;;;;11.90;6.57;;;0.90;1.00;;;;;;4902570;29;20680;-91
2023/04/05 04:21:57;;;;;;;13.50;6.70;;;0.90;1.00;;;;;;4883834;29;20578;-92
2023/04/05 04:24:25;;;;;;;16.03;6.90;;;0.80;1.00;;;;;;4883621;29;20206;-91
2023/04/05 04:26:53;;;;;;;11.73;5.83;;;0.80;1.00;;;;;;4895536;29;20285;-92
2023/04/05 04:29:29;;;;;;;4.90;2.93;;;0.70;1.00;;;;;;4901982;29;20205;-92
2023/04/05 04:31:56;;;;;;;9.00;4.20;;;0.60;1.00;;;;;;4902335;29;20624;-92
2023/04/05 04:34:24;;;;;;;10.43;5.27;;;0.60;1.00;;;;;;4901988;29;20204;-92
2023/04/05 04:36:59;;;;;;;5.63;3.03;;;0.50;1.00;;;;;;4901979;29;20634;-92
2023/04/05 04:39:30;;;;;;;7.23;3.33;;;0.50;11.40;;;;;;4902160;29;20198;-93
2023/04/05 04:41:58;;;;;;;7.50;3.90;;;0.50;39.30;;;;;;4902316;29;20262;-96
2023/04/05 04:44:31;;;;;;;7.73;3.77;;;0.40;95.30;;;;;;4901859;29;20661;-92
2023/04/05 04:46:58;;;;;;;9.60;4.87;;;0.40;99.90;;;;;;4900361;29;20198;-90
2023/04/05 04:49:27;;;;;;;9.63;4.53;;;0.40;99.90;;;;;;4901588;29;20197;-92
2023/04/05 04:51:57;;;;;;;9.23;4.63;;;0.30;99.90;;;;;;4889593;29;20203;-96
2023/04/05 04:54:24;;;;;;;9.20;4.50;;;0.30;99.90;;;;;;4895117;29;20194;-93
2023/04/05 04:56:50;;;;;;;6.73;3.67;;;0.20;99.90;;;;;;4901813;29;20229;-92
2023/04/05 04:59:17;;;;;;;7.87;3.93;;;0.20;99.90;;;;;;4901460;29;20194;-91
2023/04/05 05:01:45;;;;;;;6.87;3.87;;;0.20;91.70;;;;;;4901570;29;20201;-91
2023/04/05 05:04:12;;;;;;;9.50;4.23;;;0.10;48.60;;;;;;4901865;29;20688;-92
2023/04/05 05:06:39;;;;;;;7.60;4.30;;;0.10;8.30;;;;;;4901838;29;20202;-91
2023/04/05 05:09:07;;;;;;;9.87;4.27;;;0.10;1.00;;;;;;4901335;29;20208;-91
2023/04/05 05:11:33;;;;;;;7.50;4.00;;;0.10;1.00;;;;;;4901766;29;20194;-92
2023/04/05 05:14:00;;;;;;;11.67;4.50;;;0.20;1.00;;;;;;4901314;29;20208;-91
2023/04/05 05:16:27;;;;;;;11.33;3.83;;;0.20;1.00;;;;;;4900883;29;20240;-92
2023/04/05 05:18:54;;;;;;;7.07;2.97;;;0.20;1.00;;;;;;4901493;29;20281;-92
2023/04/05 05:21:21;;;;;;;6.20;3.00;;;0.20;1.00;;;;;;4901529;29;20216;-92
2023/04/05 05:23:49;;;;;;;4.67;2.33;;;0.20;1.00;;;;;;4901859;29;20198;-93
2023/04/05 05:26:17;;;;;;;4.03;2.40;;;0.30;1.00;;;;;;4901405;29;20198;-92
2023/04/05 05:28:44;;;;;;;8.07;2.87;;;0.30;1.00;;;;;;4897298;29;20201;-92
2023/04/05 05:31:13;;;;;;;3.83;2.27;;;0.30;1.00;;;;;;4884957;29;20202;-92
2023/04/05 05:33:39;;;;;;;5.87;2.73;;;0.30;1.00;;;;;;4900316;29;20211;-92
2023/04/05 05:36:07;;;;;;;3.83;2.07;;;0.40;1.00;;;;;;4900314;29;20214;-92
2023/04/05 05:38:34;;;;;;;5.80;1.70;;;0.40;1.00;;;;;;4897363;29;20213;-92
2023/04/05 05:41:01;;;;;;;3.63;1.63;;;0.40;1.00;;;;;;4887614;29;20209;-92
2023/04/05 05:43:29;;;;;;;3.10;1.60;;;0.50;1.00;;;;;;4900161;29;20202;-93
2023/04/05 05:45:56;;;;;;;5.53;2.00;;;0.50;99.90;;;;;;4900453;29;20205;-92
2023/04/05 05:48:23;;;;;;;4.43;1.83;;;0.50;99.90;;;;;;4891764;29;20206;-91
2023/04/05 05:50:49;;;;;;;2.13;1.30;;;0.60;99.90;;;;;;4889461;29;20282;-92
2023/04/05 05:53:16;;;;;;;3.47;1.60;;;0.60;99.90;;;;;;4888960;29;20565;-93
2023/04/05 05:55:43;;;;;;;2.83;1.30;;;0.60;99.90;;;;;;4884765;29;20209;-93
2023/04/05 05:58:10;;;;;;;3.20;1.30;;;0.60;99.90;;;;;;4885770;29;20288;-92
2023/04/05 06:00:38;;;;;;;2.17;1.50;;;0.70;99.90;;;;;;4899168;29;20615;-92
2023/04/05 06:03:05;;;;;;;3.33;2.00;;;0.70;99.90;;;;;;4900054;29;20201;-92
2023/04/05 06:05:32;;;;;;;5.57;1.80;;;0.70;99.90;;;;;;4899798;29;20212;-93
2023/04/05 06:07:59;;;;;;;3.13;1.60;;;0.70;99.90;;;;;;4899735;29;20194;-92
2023/04/05 06:10:26;;;;;;;6.57;2.10;;;0.80;99.90;;;;;;4884970;29;20198;-92
2023/04/05 06:12:52;;;;;;;5.17;2.07;;;0.90;99.90;;;;;;4900207;29;20201;-93
2023/04/05 06:15:19;;;;;;;6.57;2.00;;;0.90;93.90;;;;;;4899160;29;20208;-91
2023/04/05 06:17:47;;;;;;;2.83;1.70;;;0.90;44.40;;;;;;4899561;29;20214;-92
2023/04/05 06:20:14;;;;;;;4.97;1.97;;;1.00;3.40;;;;;;4900197;29;20565;-93
2023/04/05 06:22:41;;;;;;;6.03;1.80;;;1.10;1.00;;;;;;4884619;29;20202;-92
2023/04/05 06:25:11;;;;;;;3.33;1.60;;;1.10;1.00;;;;;;4885828;29;20202;-93
2023/04/05 06:27:37;;;;;;;3.83;1.70;;;1.10;1.00;;;;;;4888601;29;20205;-92
2023/04/05 06:30:05;;;;;;;3.90;1.23;;;1.20;1.00;;;;;;4888983;29;20221;-92
2023/04/05 06:32:32;;;;;;;3.07;1.20;;;1.30;1.00;;;;;;4888863;29;20206;-92
2023/04/05 06:35:02;;;;;;;2.80;1.80;;;1.30;1.00;;;;;;4886340;29;20209;-92
2023/04/05 06:37:29;;;;;;;4.20;1.63;;;1.40;1.00;;;;;;4884223;29;20650;-92
2023/04/05 06:39:56;;;;;;;2.37;1.10;;;1.40;1.00;;;;;;4887032;29;20199;-92
2023/04/05 06:42:22;;;;;;;3.33;1.67;;;1.50;1.00;;;;;;4888660;29;20199;-92
2023/04/05 06:44:49;;;;;;;4.90;1.37;;;1.50;1.00;;;;;;4888807;29;20205;-91
2023/04/05 06:47:16;;;;;;;4.77;1.70;;;1.50;1.00;;;;;;4888422;29;20526;-92
2023/04/05 06:49:43;;;;;;;3.00;1.47;;;1.60;1.00;;;;;;4899295;29;20217;-91
2023/04/05 06:52:11;;;;;;;2.03;1.50;;;1.60;1.00;;;;;;4885245;29;20194;-92
2023/04/05 06:54:38;;;;;;;1.77;1.10;;;1.60;1.00;;;;;;4888394;29;20206;-93
2023/04/05 06:57:05;;;;;;;2.30;1.33;;;1.70;1.00;;;;;;4888108;29;20263;-92
2023/04/05 06:59:32;;;;;;;2.73;1.20;;;1.80;1.00;;;;;;4888328;29;20210;-92
2023/04/05 07:01:59;;;;;;;2.77;1.20;;;1.90;1.00;;;;;;4885428;29;20199;-92
2023/04/05 07:04:28;;;;;;;1.10;1.00;;;1.90;1.00;;;;;;4883968;29;20200;-93
2023/04/05 07:06:55;;;;;;;2.97;1.20;;;2.00;1.00;;;;;;4887204;29;20621;-92
2023/04/05 07:09:24;;;;;;;2.10;1.30;;;2.00;1.00;;;;;;4887846;29;20203;-92
2023/04/05 07:11:51;;;;;;;2.77;1.50;;;2.10;1.00;;;;;;4891950;29;20203;-92
2023/04/05 07:14:17;;;;;;;2.50;1.47;;;2.10;1.00;;;;;;4898606;29;20293;-92
2023/04/05 07:16:44;;;;;;;1.77;1.10;;;2.10;1.00;;;;;;4883434;29;20237;-92
2023/04/05 07:19:11;;;;;;;3.33;1.20;;;2.20;1.00;;;;;;4885082;29;20200;-92
2023/04/05 07:21:38;;;;;;;2.37;1.10;;;2.30;1.00;;;;;;4888106;29;20299;-91
2023/04/05 07:24:05;;;;;;;2.33;1.33;;;2.30;1.00;;;;;;4887994;29;20221;-92
2023/04/05 07:26:34;;;;;;;2.40;1.30;;;2.40;1.00;;;;;;4887785;29;20249;-92
2023/04/05 07:29:01;;;;;;;3.83;1.27;;;2.40;1.00;;;;;;4885352;29;20691;-92
2023/04/05 07:31:28;;;;;;;4.27;1.23;;;2.50;1.00;;;;;;4883622;29;20206;-92
2023/04/05 07:33:56;;;;;;;3.47;1.50;;;2.50;1.00;;;;;;4886468;29;20215;-92
2023/04/05 07:36:23;;;;;;;1.87;1.30;;;2.50;1.00;;;;;;4887723;29;20265;-92
2023/04/05 07:38:50;;;;;;;3.07;1.40;;;2.60;1.00;;;;;;4888068;29;20217;-93
2023/04/05 07:41:18;;;;;;;3.57;1.70;;;2.60;1.00;;;;;;4887500;29;20741;-94
2023/04/05 07:43:47;;;;;;;1.30;1.00;;;2.70;1.00;;;;;;4883601;29;20199;-93
2023/04/05 07:46:13;;;;;;;5.00;1.23;;;2.70;1.00;;;;;;4894693;29;20206;-92
2023/04/05 07:48:40;;;;;;;2.97;1.53;;;2.90;1.00;;;;;;4898452;29;20208;-92
2023/04/05 07:51:08;;;;;;;2.23;1.20;;;3.10;1.00;;;;;;4892221;29;20207;-92
2023/04/05 07:53:36;;;;;;;2.03;0.90;;;3.20;1.00;;;;;;4889812;29;20666;-91
2023/04/05 07:56:04;;;;;;;2.87;1.20;;;3.20;1.00;;;;;;4898294;29;20194;-91
2023/04/05 07:58:31;;;;;;;1.67;1.00;;;3.20;1.00;;;;;;4898234;29;20228;-91
2023/04/05 08:01:01;;;;;;;2.33;0.93;;;3.20;1.00;;;;;;4884194;29;20201;-92
2023/04/05 08:03:28;;;;;;;5.57;3.77;;;3.20;1.00;;;;;;4887662;29;20210;-92
2023/04/05 08:05:55;;;;;;;4.93;2.60;;;3.10;1.00;;;;;;4887493;29;20204;-91
2023/04/05 08:08:22;;;;;;;12.60;5.33;;;3.30;1.00;;;;;;4887626;29;20198;-92
2023/04/05 08:10:49;;;;;;;3.63;1.80;;;3.30;1.00;;;;;;4883255;29;20203;-91
2023/04/05 08:13:16;;;;;;;11.37;5.03;;;3.30;1.00;;;;;;4883934;29;20287;-91
2023/04/05 08:15:43;;;;;;;6.07;4.27;;;3.40;1.00;;;;;;4897958;29;20232;-91
2023/04/05 08:18:11;;;;;;;4.33;2.10;;;3.40;1.00;;;;;;4898066;29;20218;-91
2023/04/05 08:20:39;;;;;;;5.63;4.07;;;3.40;1.00;;;;;;4898481;29;20246;-92
2023/04/05 08:23:06;;;;;;;18.90;8.20;;;3.40;1.00;;;;;;4901275;29;20197;-92
2023/04/05 08:25:33;;;;;;;5.57;2.10;;;3.40;1.00;;;;;;4886138;29;20731;-91
2023/04/05 08:28:00;;;;;;;34.70;7.73;;;3.30;1.00;;;;;;4889173;29;20708;-92
2023/04/05 08:30:27;;;;;;;2.40;1.40;;;3.40;1.00;;;;;;4899514;29;20569;-92
2023/04/05 08:32:53;;;;;;;6.23;2.70;;;3.50;1.00;;;;;;4901766;29;20663;-92
2023/04/05 08:35:21;;;;;;;2.03;1.27;;;3.60;1.00;;;;;;4901303;29;20206;-93
2023/04/05 08:37:48;;;;;;;8.20;4.13;;;3.70;99.90;;;;;;4886862;29;20225;-93
2023/04/05 08:40:15;;;;;;;6.63;2.20;;;3.80;99.90;;;;;;4897605;29;20198;-92
2023/04/05 08:42:46;;;;;;;12.87;3.63;;;3.90;99.90;;;;;;4901387;29;20306;-92
2023/04/05 08:45:15;;;;;;;11.57;4.43;;;4.00;99.90;;;;;;4894757;29;20204;-92
2023/04/05 08:47:42;;;;;;;2.60;1.40;;;4.00;99.90;;;;;;4890701;29;20233;-93
2023/04/05 08:50:12;;;;;;;19.30;4.97;;;4.00;99.90;;;;;;4889032;29;20198;-93
2023/04/05 08:52:42;;;;;;;5.57;2.00;;;4.10;99.90;;;;;;4885934;29;20350;-91
2023/04/05 08:55:09;;;;;;;7.60;3.53;;;4.10;99.90;;;;;;4901473;29;20204;-94
2023/04/05 08:57:39;;;;;;;2.43;1.23;;;4.20;99.90;;;;;;4891265;29;20220;-93
2023/04/05 09:00:09;;;;;;;23.93;4.53;;;4.20;99.90;;;;;;4896326;29;20281;-93
2023/04/05 09:02:37;;;;;;;2.40;1.13;;;4.30;99.90;;;;;;4898865;29;20236;-92
2023/04/05 09:05:08;;;;;;;14.90;3.23;;;4.40;99.90;;;;;;4887756;29;20205;-92
2023/04/05 09:07:36;;;;;;;4.47;1.63;;;4.40;99.90;;;;;;4900970;29;20204;-93
2023/04/05 09:10:06;;;;;;;5.50;2.80;;;4.50;99.90;;;;;;4901220;29;20209;-92
2023/04/05 09:12:37;;;;;;;14.33;4.97;;;4.70;99.90;;;;;;4891582;29;20578;-93
2023/04/05 09:15:05;;;;;;;14.57;6.20;;;4.80;99.90;;;;;;4896138;29;20202;-92
2023/04/05 09:17:33;;;;;;;16.77;4.10;;;4.90;99.90;;;;;;4899344;29;20240;-93
2023/04/05 09:20:00;;;;;;;20.53;4.33;;;5.00;99.90;;;;;;4887681;29;20198;-93
2023/04/05 09:22:27;;;;;;;5.60;1.77;;;5.10;99.90;;;;;;4885409;29;20199;-93
2023/04/05 09:24:55;;;;;;;2.17;1.30;;;5.10;99.90;;;;;;4889261;29;20199;-91
2023/04/05 09:27:23;;;;;;;7.00;1.67;;;5.00;99.90;;;;;;4890242;29;20250;-92
2023/04/05 09:29:50;;;;;;;11.80;3.20;;;5.10;99.90;;;;;;4889743;29;20546;-91
2023/04/05 09:32:20;;;;;;;9.37;3.53;;;5.10;99.90;;;;;;4888379;29;20199;-91
2023/04/05 09:34:46;;;;;;;5.97;1.83;;;5.20;99.90;;;;;;4885381;29;20217;-92
2023/04/05 09:37:15;;;;;;;2.90;1.50;;;5.20;99.90;;;;;;4886362;29;20226;-92
2023/04/05 09:39:42;;;;;;;3.63;1.50;;;5.20;99.90;;;;;;4889496;29;20202;-93
2023/04/05 09:42:10;;;;;;;2.43;1.23;;;5.40;99.90;;;;;;4889535;29;20200;-92
2023/04/05 09:44:52;;;;;;;15.00;3.73;;;5.50;99.90;;;;;;4889609;29;20288;-92
2023/04/05 09:47:20;;;;;;;14.57;3.23;;;5.50;99.90;;;;;;4889210;29;20237;-91
2023/04/05 09:49:47;;;;;;;7.57;2.40;;;5.50;99.90;;;;;;4900412;29;20213;-93
2023/04/05 09:52:19;;;;;;;3.43;1.10;;;5.50;99.90;;;;;;4900283;29;20198;-92
2023/04/05 09:54:46;;;;;;;20.33;4.53;;;5.50;99.90;;;;;;4900334;29;20190;-92
2023/04/05 09:57:13;;;;;;;8.37;2.50;;;5.50;99.90;;;;;;4893393;29;20223;-92
2023/04/05 09:59:40;;;;;;;6.40;1.80;;;5.50;99.90;;;;;;4889470;29;20214;-92
2023/04/05 10:02:10;;;;;;;4.33;1.63;;;5.60;99.90;;;;;;4887212;29;20198;-93
2023/04/05 10:04:40;;;;;;;2.87;1.40;;;5.60;99.90;;;;;;4885408;29;20202;-92
2023/04/05 10:07:08;;;;;;;2.50;1.40;;;5.70;99.90;;;;;;4886746;29;20203;-94
2023/04/05 10:09:35;;;;;;;3.23;1.90;;;5.80;99.90;;;;;;4889169;29;20663;-93
2023/04/05 10:12:03;;;;;;;13.30;4.87;;;5.90;99.90;;;;;;4889256;29;20678;-91
2023/04/05 10:14:30;;;;;;;6.27;3.30;;;6.00;99.90;;;;;;4889272;29;20232;-93
2023/04/05 10:17:08;;;;;;;7.37;3.13;;;5.90;99.90;;;;;;4885581;29;20301;-92
2023/04/05 10:19:55;;;;;;;4.37;2.20;;;6.00;99.90;;;;;;4885076;29;20263;-93
2023/04/05 10:22:28;;;;;;;5.47;1.43;;;6.10;99.90;;;;;;4896412;29;20253;-93
2023/04/05 10:25:04;;;;;;;3.73;1.60;;;6.10;99.90;;;;;;4899419;29;20211;-92
2023/04/05 10:27:33;;;;;;;4.77;2.30;;;6.20;99.90;;;;;;4890720;29;20203;-92
2023/04/05 10:30:07;;;;;;;2.13;1.30;;;6.20;99.90;;;;;;4893650;29;20191;-93
2023/04/05 10:33:03;;;;;;;3.67;1.37;;;6.30;99.90;;;;;;4897791;29;20204;-93
2023/04/05 10:35:41;;;;;;;4.33;1.97;;;6.40;99.90;;;;;;4889489;29;20201;-92
2023/04/05 10:38:17;;;;;;;7.53;3.17;;;6.50;99.90;;;;;;4899375;29;20218;-92
2023/04/05 10:40:47;;;;;;;4.77;1.40;;;6.50;99.90;;;;;;4884167;29;20643;-91
2023/04/05 10:43:17;;;;;;;2.13;1.27;;;6.60;99.90;;;;;;4899514;29;20654;-92
2023/04/05 10:45:45;;;;;;;2.97;1.43;;;6.60;99.90;;;;;;4888876;29;20201;-93
2023/04/05 10:48:18;;;;;;;3.57;1.47;;;6.70;99.90;;;;;;4894796;29;20661;-92
2023/04/05 10:50:48;;;;;;;2.47;1.20;;;6.90;99.90;;;;;;4896066;29;20205;-93
2023/04/05 10:53:16;;;;;;;3.53;1.30;;;7.00;99.90;;;;;;4887175;29;20205;-93
2023/04/05 10:55:44;;;;;;;3.57;1.20;;;7.10;99.90;;;;;;4884030;29;20199;-92
2023/04/05 10:58:14;;;;;;;4.10;2.70;;;7.10;99.90;;;;;;4885384;29;20215;-92
2023/04/05 11:00:41;;;;;;;4.13;1.40;;;7.20;99.90;;;;;;4898418;29;20208;-92
2023/04/05 11:03:08;;;;;;;2.57;1.50;;;7.20;99.90;;;;;;4892898;29;20200;-92
2023/04/05 11:05:36;;;;;;;4.90;1.77;;;7.20;99.90;;;;;;4889573;29;20200;-92
2023/04/05 11:08:06;;;;;;;3.67;1.50;;;7.10;99.90;;;;;;4898936;29;20263;-92
2023/04/05 11:10:36;;;;;;;5.27;2.47;;;7.00;99.90;;;;;;4898899;29;20208;-92
2023/04/05 11:13:05;;;;;;;2.93;1.60;;;7.00;99.90;;;;;;4893318;29;20205;-92
2023/04/05 11:15:33;;;;;;;2.47;1.50;;;7.00;99.90;;;;;;4889789;29;20201;-92
2023/04/05 11:18:05;;;;;;;1.90;1.27;;;7.10;99.90;;;;;;4892483;29;20306;-92
2023/04/05 11:20:50;;;;;;;2.43;1.37;;;7.00;99.90;;;;;;4897524;29;20198;-92
2023/04/05 11:23:20;;;;;;;4.00;1.47;;;7.10;99.90;;;;;;4886924;29;20229;-92
2023/04/05 11:25:51;;;;;;;3.53;1.60;;;7.30;99.90;;;;;;4883880;29;20208;-92
2023/04/05 11:28:36;;;;;;;2.47;1.33;;;7.50;99.90;;;;;;4894982;29;20194;-91
2023/04/05 11:31:13;;;;;;;2.00;1.30;;;7.50;99.90;;;;;;4884466;29;20207;-92
2023/04/05 11:33:57;;;;;;;3.87;1.53;;;7.70;99.90;;;;;;4887663;29;20709;-92
2023/04/05 11:36:32;;;;;;;2.37;1.43;;;7.70;99.90;;;;;;4888007;29;20242;-92
2023/04/05 11:39:25;;;;;;;2.30;1.40;;;7.80;99.90;;;;;;4892529;29;20670;-92
2023/04/05 11:42:01;;;;;;;2.43;1.37;;;7.80;99.90;;;;;;4886732;29;20254;-91
2023/04/05 11:44:29;;;;;;;4.27;1.40;;;7.80;99.90;;;;;;4887674;29;20759;-93
2023/04/05 11:46:56;;;;;;;3.20;1.30;;;7.80;99.90;;;;;;4884013;29;20597;-91
2023/04/05 11:49:24;;;;;;;2.77;1.23;;;7.90;99.90;;;;;;4883665;29;20200;-92
2023/04/05 11:51:52;;;;;;;2.33;1.20;;;8.00;99.90;;;;;;4887255;29;20263;-91
2023/04/05 11:54:33;;;;;;;4.20;1.50;;;7.90;99.90;;;;;;4887679;29;20209;-92
2023/04/05 11:57:02;;;;;;;2.80;1.60;;;7.90;99.90;;;;;;4890566;29;20203;-91
2023/04/05 11:59:31;;;;;;;1.80;1.10;;;8.00;99.90;;;;;;4890986;29;20230;-91
2023/04/05 12:01:59;;;;;;;3.17;1.30;;;8.00;99.90;;;;;;4887717;29;20207;-91
2023/04/05 12:04:26;;;;;;;2.93;1.60;;;8.10;99.90;;;;;;4886896;29;20216;-91
2023/04/05 12:07:08;;;;;;;4.57;1.30;;;8.20;99.90;;;;;;4890596;29;20203;-91
2023/04/05 12:09:36;;;;;;;1.47;1.20;;;8.20;99.90;;;;;;4891019;29;20202;-91
2023/04/05 12:12:03;;;;;;;3.33;1.23;;;8.20;99.90;;;;;;4891190;29;20210;-92
2023/04/05 12:14:32;;;;;;;2.80;1.70;;;8.20;99.90;;;;;;4891074;29;20582;-91
2023/04/05 12:16:58;;;;;;;2.30;1.50;;;8.30;99.90;;;;;;4887220;29;20704;-91
2023/04/05 12:19:30;;;;;;;3.67;1.50;;;8.30;99.90;;;;;;4886599;29;20221;-91
2023/04/05 12:21:57;;;;;;;3.93;1.70;;;8.50;99.90;;;;;;4901552;29;20250;-91
2023/04/05 12:24:24;;;;;;;3.73;1.73;;;8.60;99.90;;;;;;4901343;29;20210;-91
2023/04/05 12:26:52;;;;;;;3.00;1.60;;;8.60;99.90;;;;;;4897840;29;20200;-91
2023/04/05 12:29:19;;;;;;;2.07;1.50;;;8.60;99.90;;;;;;4889850;29;20202;-91
2023/04/05 12:31:46;;;;;;;3.83;1.60;;;8.40;99.90;;;;;;4885900;29;20202;-91
2023/04/05 12:34:14;;;;;;;3.87;1.50;;;8.40;99.90;;;;;;4887636;29;20207;-91
2023/04/05 12:36:44;;;;;;;4.90;2.53;;;8.30;99.90;;;;;;4890427;29;20219;-91
2023/04/05 12:39:11;;;;;;;2.73;1.80;;;8.20;99.90;;;;;;4896580;29;20285;-90
2023/04/05 12:41:38;;;;;;;5.63;4.07;;;8.20;99.90;;;;;;4899577;29;20573;-91
2023/04/05 12:44:15;;;;;;;3.17;1.80;;;8.20;99.90;;;;;;4887615;29;20215;-91
2023/04/05 12:46:44;;;;;;;6.90;1.70;;;8.20;99.90;;;;;;4885720;29;20207;-91
2023/04/05 12:49:11;;;;;;;7.47;4.27;;;8.20;99.90;;;;;;4887668;29;20252;-91
2023/04/05 12:51:42;;;;;;;100.77;32.80;;;8.30;99.90;;;;;;4889951;29;20204;-91
2023/04/05 12:54:11;;;;;;;13.40;5.93;;;8.40;99.90;;;;;;4895870;29;20679;-91
2023/04/05 12:56:38;;;;;;;14.30;8.47;;;8.30;99.90;;;;;;4898880;29;20210;-91
2023/04/05 12:59:07;;;;;;;10.47;4.30;;;8.10;99.90;;;;;;4887110;29;20218;-91
2023/04/05 13:01:35;;;;;;;4.97;1.90;;;8.20;99.90;;;;;;4885476;29;20207;-91
2023/04/05 13:04:04;;;;;;;7.77;2.60;;;8.10;99.90;;;;;;4888460;29;20200;-91
2023/04/05 13:06:30;;;;;;;7.30;2.83;;;8.10;99.90;;;;;;4889646;29;20212;-91
2023/04/05 13:08:57;;;;;;;4.00;1.90;;;8.20;99.90;;;;;;4888986;29;20203;-91